createdAt,value
2022-10-25T03:02:59.013Z,1.13
2022-10-25T03:05:27.389Z,1.53
2022-10-25T03:07:55.717Z,1.33
2022-10-25T03:10:24.074Z,1.20
2022-10-25T03:12:52.398Z,1.57
2022-10-25T03:15:20.847Z,1.30
2022-10-25T03:17:49.466Z,1.03
2022-10-25T03:20:19.445Z,1.17
2022-10-25T03:22:47.861Z,0.93
2022-10-25T03:25:16.412Z,1.60
2022-10-25T03:27:45.019Z,0.90
2022-10-25T03:30:15.028Z,1.43
2022-10-25T03:32:43.521Z,1.50
2022-10-25T03:35:11.946Z,2.20
2022-10-25T03:37:41.773Z,1.90
2022-10-25T03:40:11.848Z,1.00
2022-10-25T03:42:40.206Z,1.13
2022-10-25T03:45:09.324Z,1.43
2022-10-25T03:47:37.807Z,2.90
2022-10-25T03:50:07.386Z,1.10
2022-10-25T03:52:36.187Z,1.57
2022-10-25T03:55:07.407Z,1.80
2022-10-25T03:57:35.948Z,1.50
2022-10-25T04:00:05.245Z,1.60
2022-10-25T04:02:39.985Z,1.60
2022-10-25T04:05:09.496Z,2.07
2022-10-25T04:07:37.874Z,2.03
2022-10-25T04:10:08.821Z,1.73
2022-10-25T04:12:37.231Z,1.43
2022-10-25T04:15:06.444Z,1.53
2022-10-25T04:17:34.799Z,1.40
2022-10-25T04:20:03.238Z,1.70
2022-10-25T04:22:31.668Z,1.30
2022-10-25T04:25:00.122Z,1.80
2022-10-25T04:27:29.851Z,1.77
2022-10-25T04:29:58.200Z,1.60
2022-10-25T04:32:26.573Z,1.50
2022-10-25T04:34:54.981Z,1.57
2022-10-25T04:37:23.329Z,1.87
2022-10-25T04:39:53.041Z,2.00
2022-10-25T04:42:21.418Z,1.90
2022-10-25T04:44:51.177Z,2.20
2022-10-25T04:47:19.564Z,2.40
2022-10-25T04:49:47.887Z,1.70
2022-10-25T04:52:16.301Z,2.07
2022-10-25T04:54:44.743Z,1.93
2022-10-25T04:57:13.120Z,1.90
2022-10-25T04:59:41.556Z,1.63
2022-10-25T05:02:12.422Z,1.90
2022-10-25T05:04:40.841Z,2.23
2022-10-25T05:07:09.188Z,1.70
2022-10-25T05:09:37.743Z,2.00
2022-10-25T05:12:07.134Z,1.73
2022-10-25T05:14:35.677Z,2.23
2022-10-25T05:17:04.118Z,1.40
2022-10-25T05:19:33.874Z,1.43
2022-10-25T05:22:02.291Z,1.47
2022-10-25T05:24:30.719Z,1.97
2022-10-25T05:26:59.151Z,1.80
2022-10-25T05:29:27.783Z,2.23
2022-10-25T05:31:56.181Z,2.20
2022-10-25T05:34:24.737Z,2.30
2022-10-25T05:36:54.864Z,1.70
2022-10-25T05:39:23.292Z,2.47
2022-10-25T05:41:52.728Z,3.57
2022-10-25T05:44:21.161Z,2.43
2022-10-25T05:46:49.511Z,2.13
2022-10-25T05:49:17.911Z,1.83
2022-10-25T05:51:46.296Z,1.93
2022-10-25T05:54:17.165Z,1.70
2022-10-25T05:56:45.571Z,2.13
2022-10-25T05:59:16.103Z,2.20
2022-10-25T06:01:47.299Z,2.03
2022-10-25T06:04:17.047Z,2.30
2022-10-25T06:06:47.617Z,2.70
2022-10-25T06:09:19.067Z,2.30
2022-10-25T06:11:47.431Z,2.13
2022-10-25T06:14:15.779Z,2.23
2022-10-25T06:16:44.303Z,2.17
2022-10-25T06:19:12.694Z,3.07
2022-10-25T06:21:41.128Z,2.27
2022-10-25T06:24:11.069Z,2.87
2022-10-25T06:26:40.906Z,2.33
2022-10-25T06:29:09.279Z,2.43
2022-10-25T06:31:37.797Z,2.40
2022-10-25T06:34:06.136Z,2.60
2022-10-25T06:36:34.507Z,3.03
2022-10-25T06:39:05.771Z,2.77
2022-10-25T06:41:37.063Z,2.67
2022-10-25T06:44:08.321Z,2.10
2022-10-25T06:47:04.407Z,3.13
2022-10-25T06:49:27.368Z,3.30
2022-10-25T06:51:55.959Z,2.67
2022-10-25T06:54:25.587Z,2.73
2022-10-25T06:56:54.141Z,2.50
2022-10-25T06:59:23.906Z,3.30
2022-10-25T07:01:52.651Z,2.53
2022-10-25T07:04:21.080Z,3.17
2022-10-25T07:06:52.760Z,2.67
2022-10-25T07:09:23.620Z,2.83
2022-10-25T07:11:52.087Z,2.63
2022-10-25T07:14:20.548Z,2.67
2022-10-25T07:16:50.275Z,2.43
2022-10-25T07:19:18.650Z,2.40
2022-10-25T07:21:47.003Z,2.50
2022-10-25T07:24:15.483Z,3.37
2022-10-25T07:26:43.815Z,2.80
2022-10-25T07:29:12.214Z,3.50
2022-10-25T07:31:44.236Z,2.70
2022-10-25T07:34:16.630Z,3.00
2022-10-25T07:36:45.695Z,4.20
2022-10-25T07:39:14.427Z,2.77
2022-10-25T07:41:42.853Z,2.77
2022-10-25T07:44:15.905Z,3.13
2022-10-25T07:46:45.241Z,2.80
2022-10-25T07:49:15.302Z,3.90
2022-10-25T07:51:43.942Z,3.97
2022-10-25T07:54:12.253Z,3.30
2022-10-25T07:56:40.644Z,4.20
2022-10-25T07:59:08.973Z,4.10
2022-10-25T08:01:37.737Z,3.00
2022-10-25T08:04:06.368Z,3.70
2022-10-25T08:06:36.494Z,3.50
2022-10-25T08:09:14.373Z,3.67
2022-10-25T08:11:43.718Z,2.90
2022-10-25T08:14:12.164Z,3.10
2022-10-25T08:16:40.530Z,3.73
2022-10-25T08:19:09.107Z,4.00
2022-10-25T08:21:38.943Z,4.03
2022-10-25T08:24:08.358Z,3.47
2022-10-25T08:26:37.277Z,2.67
2022-10-25T08:29:05.834Z,3.40
2022-10-25T08:31:34.180Z,3.00
2022-10-25T08:34:02.680Z,3.50
2022-10-25T08:36:31.171Z,3.23
2022-10-25T08:39:00.892Z,3.80
2022-10-25T08:41:41.628Z,3.83
2022-10-25T08:44:18.094Z,4.50
2022-10-25T08:46:57.086Z,3.63
2022-10-25T08:49:33.285Z,3.40
2022-10-25T08:52:02.985Z,2.80
2022-10-25T08:54:37.019Z,2.90
2022-10-25T08:57:18.726Z,3.70
2022-10-25T08:59:51.585Z,4.40
2022-10-25T09:02:28.005Z,3.20
2022-10-25T09:04:56.668Z,3.43
2022-10-25T09:07:50.897Z,3.63
2022-10-25T09:10:49.441Z,4.20
2022-10-25T09:13:31.399Z,4.60
2022-10-25T09:16:12.022Z,3.90
2022-10-25T09:18:49.556Z,4.93
2022-10-25T09:21:25.744Z,3.60
2022-10-25T09:24:07.467Z,3.67
2022-10-25T09:26:48.952Z,4.07
2022-10-25T09:29:26.639Z,3.50
2022-10-25T09:31:59.790Z,3.00
2022-10-25T09:34:34.109Z,3.27
2022-10-25T09:37:13.808Z,3.13
2022-10-25T09:39:46.276Z,3.93
2022-10-25T09:42:23.064Z,3.87
2022-10-25T09:44:56.283Z,3.90
2022-10-25T09:47:38.673Z,3.83
2022-10-25T09:50:13.078Z,4.00
2022-10-25T09:52:48.637Z,4.67
2022-10-25T09:55:37.322Z,4.80
2022-10-25T09:58:08.013Z,3.40
2022-10-25T10:00:40.585Z,3.10
2022-10-25T10:03:12.769Z,2.73
2022-10-25T10:05:47.247Z,2.90
2022-10-25T10:08:15.652Z,3.27
2022-10-25T10:10:45.226Z,3.10
2022-10-25T10:13:20.852Z,4.10
2022-10-25T10:15:55.428Z,3.33
2022-10-25T10:18:27.711Z,3.93
2022-10-25T10:21:07.700Z,3.83
2022-10-25T10:23:47.664Z,4.57
2022-10-25T10:26:31.937Z,3.03
2022-10-25T10:29:16.883Z,3.70
2022-10-25T10:31:51.269Z,3.30
2022-10-25T10:34:29.032Z,4.03
2022-10-25T10:37:17.270Z,3.63
2022-10-25T10:39:55.256Z,3.00
2022-10-25T10:42:25.829Z,4.00
2022-10-25T10:45:19.890Z,2.77
2022-10-25T10:47:59.670Z,2.80
2022-10-25T10:50:32.737Z,2.50
2022-10-25T10:53:05.042Z,2.33
2022-10-25T10:55:35.782Z,2.50
2022-10-25T10:58:07.225Z,3.03
2022-10-25T11:00:37.503Z,2.90
2022-10-25T11:03:06.165Z,2.20
2022-10-25T11:05:38.158Z,2.73
2022-10-25T11:08:21.681Z,3.30
2022-10-25T11:10:50.082Z,2.87
2022-10-25T11:13:20.384Z,2.80
2022-10-25T11:16:32.777Z,3.20
2022-10-25T11:19:19.059Z,2.93
2022-10-25T11:22:23.806Z,2.73
2022-10-25T11:25:10.234Z,2.77
2022-10-25T11:27:54.126Z,2.50
2022-10-25T11:30:24.616Z,2.80
2022-10-25T11:33:33.775Z,3.10
2022-10-25T11:36:16.703Z,2.87
2022-10-25T11:39:03.093Z,2.40
2022-10-25T11:41:46.032Z,3.37
2022-10-25T11:44:55.107Z,1.40
2022-10-25T11:47:34.082Z,2.00
2022-10-25T11:50:21.865Z,2.77
2022-10-25T11:53:17.649Z,2.00
2022-10-25T11:55:52.425Z,3.10
2022-10-25T11:58:37.716Z,2.30
